sensor_id;sensor_type;location;lat;lon;timestamp;pressure;altitude;pressure_sealevel;temperature;humidity
76156;BME280;64906;51.290;7.348;2023-06-24T00:01:23;99585.66;;;25.78;46.18
76156;BME280;64906;51.290;7.348;2023-06-24T00:03:49;99590.66;;;25.76;46.38
76156;BME280;64906;51.290;7.348;2023-06-24T00:06:21;99591.28;;;25.73;46.33
76156;BME280;64906;51.290;7.348;2023-06-24T00:08:48;99593.31;;;25.67;46.44
76156;BME280;64906;51.290;7.348;2023-06-24T00:11:13;99584.72;;;25.69;46.22
76156;BME280;64906;51.290;7.348;2023-06-24T00:13:40;99596.50;;;25.74;46.43
76156;BME280;64906;51.290;7.348;2023-06-24T00:16:05;99579.81;;;25.66;46.29
76156;BME280;64906;51.290;7.348;2023-06-24T00:18:34;99585.34;;;25.66;46.48
76156;BME280;64906;51.290;7.348;2023-06-24T00:20:59;99592.28;;;25.63;46.61
76156;BME280;64906;51.290;7.348;2023-06-24T00:23:27;99581.22;;;25.63;46.43
76156;BME280;64906;51.290;7.348;2023-06-24T00:25:53;99587.69;;;25.59;46.75
76156;BME280;64906;51.290;7.348;2023-06-24T00:28:19;99581.84;;;25.60;46.56
76156;BME280;64906;51.290;7.348;2023-06-24T00:30:45;99579.38;;;25.59;46.50
76156;BME280;64906;51.290;7.348;2023-06-24T00:33:10;99574.78;;;25.54;46.67
76156;BME280;64906;51.290;7.348;2023-06-24T00:35:38;99579.69;;;25.57;46.42
76156;BME280;64906;51.290;7.348;2023-06-24T00:38:03;99588.59;;;25.54;46.51
76156;BME280;64906;51.290;7.348;2023-06-24T00:40:29;99581.63;;;25.57;46.28
76156;BME280;64906;51.290;7.348;2023-06-24T00:42:55;99584.00;;;25.50;46.89
76156;BME280;64906;51.290;7.348;2023-06-24T00:45:22;99583.50;;;25.48;46.54
76156;BME280;64906;51.290;7.348;2023-06-24T00:47:47;99571.50;;;25.52;46.59
76156;BME280;64906;51.290;7.348;2023-06-24T00:50:14;99585.13;;;25.49;46.69
76156;BME280;64906;51.290;7.348;2023-06-24T00:52:39;99580.19;;;25.46;46.92
76156;BME280;64906;51.290;7.348;2023-06-24T00:55:09;99581.25;;;25.50;46.79
76156;BME280;64906;51.290;7.348;2023-06-24T00:57:37;99577.34;;;25.51;46.35
76156;BME280;64906;51.290;7.348;2023-06-24T01:00:03;99583.50;;;25.48;46.41
76156;BME280;64906;51.290;7.348;2023-06-24T01:02:31;99581.66;;;25.43;46.91
76156;BME280;64906;51.290;7.348;2023-06-24T01:04:57;99580.28;;;25.41;46.48
76156;BME280;64906;51.290;7.348;2023-06-24T01:07:22;99576.44;;;25.42;46.90
76156;BME280;64906;51.290;7.348;2023-06-24T01:09:48;99567.63;;;25.40;46.52
76156;BME280;64906;51.290;7.348;2023-06-24T01:12:14;99577.53;;;25.41;46.91
76156;BME280;64906;51.290;7.348;2023-06-24T01:14:39;99578.75;;;25.35;46.80
76156;BME280;64906;51.290;7.348;2023-06-24T01:17:51;99580.91;;;25.38;46.70
76156;BME280;64906;51.290;7.348;2023-06-24T01:32:50;99576.84;;;25.35;46.85
76156;BME280;64906;51.290;7.348;2023-06-24T01:35:21;99567.16;;;25.33;46.59
76156;BME280;64906;51.290;7.348;2023-06-24T01:37:49;99560.53;;;25.34;46.54
76156;BME280;64906;51.290;7.348;2023-06-24T01:40:30;99553.28;;;25.38;46.71
76156;BME280;64906;51.290;7.348;2023-06-24T01:42:59;99553.03;;;25.34;46.57
76156;BME280;64906;51.290;7.348;2023-06-24T01:45:28;99550.66;;;25.28;46.86
76156;BME280;64906;51.290;7.348;2023-06-24T01:48:25;99549.25;;;25.30;46.90
76156;BME280;64906;51.290;7.348;2023-06-24T01:50:55;99549.75;;;25.32;46.52
76156;BME280;64906;51.290;7.348;2023-06-24T01:53:22;99557.25;;;25.32;46.60
76156;BME280;64906;51.290;7.348;2023-06-24T01:55:49;99555.59;;;25.31;46.31
76156;BME280;64906;51.290;7.348;2023-06-24T01:58:17;99560.09;;;25.27;46.74
76156;BME280;64906;51.290;7.348;2023-06-24T02:00:43;99559.47;;;25.30;46.57
76156;BME280;64906;51.290;7.348;2023-06-24T02:03:09;99563.88;;;25.31;46.53
76156;BME280;64906;51.290;7.348;2023-06-24T02:05:36;99565.31;;;25.28;46.83
76156;BME280;64906;51.290;7.348;2023-06-24T02:08:05;99562.78;;;25.32;46.40
76156;BME280;64906;51.290;7.348;2023-06-24T02:10:32;99564.78;;;25.26;46.32
76156;BME280;64906;51.290;7.348;2023-06-24T02:12:58;99563.16;;;25.25;46.61
76156;BME280;64906;51.290;7.348;2023-06-24T02:15:25;99558.75;;;25.24;46.34
76156;BME280;64906;51.290;7.348;2023-06-24T02:17:52;99552.91;;;25.26;46.48
76156;BME280;64906;51.290;7.348;2023-06-24T02:20:21;99557.84;;;25.29;46.53
76156;BME280;64906;51.290;7.348;2023-06-24T02:22:53;99556.50;;;25.26;46.71
76156;BME280;64906;51.290;7.348;2023-06-24T02:25:19;99551.81;;;25.27;46.12
76156;BME280;64906;51.290;7.348;2023-06-24T02:27:45;99555.97;;;25.24;46.41
76156;BME280;64906;51.290;7.348;2023-06-24T02:30:11;99558.44;;;25.26;46.36
76156;BME280;64906;51.290;7.348;2023-06-24T02:32:37;99555.81;;;25.21;46.79
76156;BME280;64906;51.290;7.348;2023-06-24T02:35:03;99555.81;;;25.21;46.40
76156;BME280;64906;51.290;7.348;2023-06-24T02:37:29;99559.38;;;25.21;46.42
76156;BME280;64906;51.290;7.348;2023-06-24T02:39:56;99557.66;;;25.25;46.40
76156;BME280;64906;51.290;7.348;2023-06-24T02:42:22;99552.91;;;25.26;46.10
76156;BME280;64906;51.290;7.348;2023-06-24T02:44:47;99552.63;;;25.27;46.08
76156;BME280;64906;51.290;7.348;2023-06-24T02:47:14;99556.28;;;25.23;46.36
76156;BME280;64906;51.290;7.348;2023-06-24T02:49:42;99557.66;;;25.25;46.35
76156;BME280;64906;51.290;7.348;2023-06-24T02:52:11;99560.09;;;25.27;46.19
76156;BME280;64906;51.290;7.348;2023-06-24T02:54:37;99567.34;;;25.23;46.53
76156;BME280;64906;51.290;7.348;2023-06-24T02:57:05;99558.84;;;25.19;46.59
76156;BME280;64906;51.290;7.348;2023-06-24T02:59:32;99564.09;;;25.21;46.47
76156;BME280;64906;51.290;7.348;2023-06-24T03:01:57;99567.34;;;25.23;46.06
76156;BME280;64906;51.290;7.348;2023-06-24T03:04:23;99564.59;;;25.23;46.09
76156;BME280;64906;51.290;7.348;2023-06-24T03:06:49;99562.97;;;25.22;46.10
76156;BME280;64906;51.290;7.348;2023-06-24T03:09:16;99561.81;;;25.23;46.33
76156;BME280;64906;51.290;7.348;2023-06-24T03:11:43;99568.66;;;25.11;46.16
76156;BME280;64906;51.290;7.348;2023-06-24T03:14:09;99556.91;;;25.19;46.34
76156;BME280;64906;51.290;7.348;2023-06-24T03:16:35;99563.06;;;25.16;46.24
76156;BME280;64906;51.290;7.348;2023-06-24T03:19:00;99556.38;;;25.17;46.14
76156;BME280;64906;51.290;7.348;2023-06-24T03:21:25;99550.47;;;25.10;46.26
76156;BME280;64906;51.290;7.348;2023-06-24T03:23:55;99554.84;;;25.11;46.66
76156;BME280;64906;51.290;7.348;2023-06-24T03:26:22;99566.66;;;25.17;46.45
76156;BME280;64906;51.290;7.348;2023-06-24T03:28:47;99565.06;;;25.11;46.26
76156;BME280;64906;51.290;7.348;2023-06-24T03:31:13;99567.25;;;25.14;46.51
76156;BME280;64906;51.290;7.348;2023-06-24T03:33:40;99569.28;;;25.08;46.27
76156;BME280;64906;51.290;7.348;2023-06-24T03:36:09;99570.28;;;25.12;46.05
76156;BME280;64906;51.290;7.348;2023-06-24T03:38:34;99570.28;;;25.12;46.45
76156;BME280;64906;51.290;7.348;2023-06-24T03:41:00;99572.78;;;25.14;46.25
76156;BME280;64906;51.290;7.348;2023-06-24T03:43:25;99566.44;;;25.13;46.21
76156;BME280;64906;51.290;7.348;2023-06-24T03:45:50;99570.03;;;25.14;45.96
76156;BME280;64906;51.290;7.348;2023-06-24T03:48:16;99562.00;;;25.12;46.04
76156;BME280;64906;51.290;7.348;2023-06-24T03:50:41;99569.28;;;25.08;46.27
76156;BME280;64906;51.290;7.348;2023-06-24T03:53:06;99570.28;;;25.12;46.33
76156;BME280;64906;51.290;7.348;2023-06-24T03:55:31;99567.66;;;25.07;46.54
76156;BME280;64906;51.290;7.348;2023-06-24T03:57:57;99573.06;;;25.12;46.16
76156;BME280;64906;51.290;7.348;2023-06-24T04:00:22;99572.56;;;25.10;45.78
76156;BME280;64906;51.290;7.348;2023-06-24T04:02:48;99562.31;;;25.11;46.06
76156;BME280;64906;51.290;7.348;2023-06-24T04:05:13;99568.75;;;25.06;46.13
76156;BME280;64906;51.290;7.348;2023-06-24T04:07:38;99573.38;;;25.11;46.03
76156;BME280;64906;51.290;7.348;2023-06-24T04:10:05;99570.91;;;25.09;46.00
76156;BME280;64906;51.290;7.348;2023-06-24T04:12:34;99571.81;;;25.05;46.14
76156;BME280;64906;51.290;7.348;2023-06-24T04:15:01;99580.03;;;25.10;45.85
76156;BME280;64906;51.290;7.348;2023-06-24T04:17:28;99574.59;;;25.05;46.10
76156;BME280;64906;51.290;7.348;2023-06-24T04:19:53;99575.94;;;25.07;46.01
76156;BME280;64906;51.290;7.348;2023-06-24T04:22:19;99577.03;;;25.06;45.83
76156;BME280;64906;51.290;7.348;2023-06-24T04:24:44;99574.81;;;25.08;46.21
76156;BME280;64906;51.290;7.348;2023-06-24T04:27:09;99580.56;;;25.12;46.24
76156;BME280;64906;51.290;7.348;2023-06-24T04:29:34;99586.59;;;25.14;45.63
76156;BME280;64906;51.290;7.348;2023-06-24T04:32:00;99587.19;;;25.11;46.04
76156;BME280;64906;51.290;7.348;2023-06-24T04:34:25;99592.72;;;25.11;45.79
76156;BME280;64906;51.290;7.348;2023-06-24T04:36:50;99586.47;;;25.05;46.29
76156;BME280;64906;51.290;7.348;2023-06-24T04:39:15;99589.16;;;25.10;46.05
76156;BME280;64906;51.290;7.348;2023-06-24T04:41:41;99583.09;;;25.08;45.98
76156;BME280;64906;51.290;7.348;2023-06-24T04:44:06;99590.56;;;25.08;46.16
76156;BME280;64906;51.290;7.348;2023-06-24T04:46:31;99585.03;;;25.08;45.84
76156;BME280;64906;51.290;7.348;2023-06-24T04:48:58;99585.25;;;25.11;45.98
76156;BME280;64906;51.290;7.348;2023-06-24T04:51:23;99589.63;;;25.12;45.92
76156;BME280;64906;51.290;7.348;2023-06-24T04:53:48;99579.72;;;25.11;45.85
76156;BME280;64906;51.290;7.348;2023-06-24T04:56:13;99579.31;;;25.18;45.67
76156;BME280;64906;51.290;7.348;2023-06-24T04:58:39;99574.41;;;25.15;45.70
76156;BME280;64906;51.290;7.348;2023-06-24T05:01:04;99576.78;;;25.22;45.95
76156;BME280;64906;51.290;7.348;2023-06-24T05:03:30;99578.84;;;25.30;45.45
76156;BME280;64906;51.290;7.348;2023-06-24T05:05:55;99581.59;;;25.30;45.80
76156;BME280;64906;51.290;7.348;2023-06-24T05:08:20;99578.91;;;25.25;45.72
76156;BME280;64906;51.290;7.348;2023-06-24T05:10:45;99578.63;;;25.26;45.61
76156;BME280;64906;51.290;7.348;2023-06-24T05:13:11;99579.44;;;25.27;45.76
76156;BME280;64906;51.290;7.348;2023-06-24T05:15:36;99577.78;;;25.26;45.32
76156;BME280;64906;51.290;7.348;2023-06-24T05:18:01;99573.59;;;25.28;45.48
76156;BME280;64906;51.290;7.348;2023-06-24T05:20:26;99578.84;;;25.30;45.72
76156;BME280;64906;51.290;7.348;2023-06-24T05:22:52;99577.19;;;25.29;45.42
76156;BME280;64906;51.290;7.348;2023-06-24T05:25:18;99576.06;;;25.30;45.31
76156;BME280;64906;51.290;7.348;2023-06-24T05:27:43;99572.16;;;25.31;45.62
76156;BME280;64906;51.290;7.348;2023-06-24T05:30:10;99566.63;;;25.31;45.52
76156;BME280;64906;51.290;7.348;2023-06-24T05:32:35;99581.81;;;25.33;45.52
76156;BME280;64906;51.290;7.348;2023-06-24T05:35:00;99574.34;;;25.34;45.42
76156;BME280;64906;51.290;7.348;2023-06-24T05:37:25;99571.84;;;25.32;45.24
76156;BME280;64906;51.290;7.348;2023-06-24T05:39:51;99573.75;;;25.37;45.17
76156;BME280;64906;51.290;7.348;2023-06-24T05:42:17;99575.38;;;25.38;45.41
76156;BME280;64906;51.290;7.348;2023-06-24T05:44:42;99579.03;;;25.33;45.23
76156;BME280;64906;51.290;7.348;2023-06-24T05:47:07;99576.06;;;25.30;45.57
76156;BME280;64906;51.290;7.348;2023-06-24T05:49:32;99571.84;;;25.32;45.54
76156;BME280;64906;51.290;7.348;2023-06-24T05:51:58;99575.13;;;25.34;45.61
76156;BME280;64906;51.290;7.348;2023-06-24T05:54:24;99578.84;;;25.30;45.80
76156;BME280;64906;51.290;7.348;2023-06-24T05:56:49;99571.69;;;25.29;45.43
76156;BME280;64906;51.290;7.348;2023-06-24T05:59:14;99572.47;;;25.29;45.70
76156;BME280;64906;51.290;7.348;2023-06-24T06:01:40;99576.53;;;25.37;45.57
76156;BME280;64906;51.290;7.348;2023-06-24T06:04:05;99580.97;;;25.33;45.59
76156;BME280;64906;51.290;7.348;2023-06-24T06:06:30;99571.78;;;25.37;45.69
76156;BME280;64906;51.290;7.348;2023-06-24T06:08:56;99586.13;;;25.39;45.05
76156;BME280;64906;51.290;7.348;2023-06-24T06:11:22;99585.34;;;25.39;45.29
76156;BME280;64906;51.290;7.348;2023-06-24T06:13:47;99585.34;;;25.39;45.51
76156;BME280;64906;51.290;7.348;2023-06-24T06:16:13;99583.06;;;25.41;45.41
76156;BME280;64906;51.290;7.348;2023-06-24T06:18:38;99581.66;;;25.43;45.55
76156;BME280;64906;51.290;7.348;2023-06-24T06:21:04;99586.56;;;25.46;45.21
76156;BME280;64906;51.290;7.348;2023-06-24T06:23:29;99580.63;;;25.53;45.13
76156;BME280;64906;51.290;7.348;2023-06-24T06:25:55;99583.28;;;25.58;45.00
76156;BME280;64906;51.290;7.348;2023-06-24T06:28:20;99585.13;;;25.62;44.88
76156;BME280;64906;51.290;7.348;2023-06-24T06:30:46;99597.00;;;25.63;45.07
76156;BME280;64906;51.290;7.348;2023-06-24T06:33:11;99590.34;;;25.64;45.12
76156;BME280;64906;51.290;7.348;2023-06-24T06:35:36;99589.34;;;25.60;45.13
76156;BME280;64906;51.290;7.348;2023-06-24T06:38:01;99603.66;;;25.62;45.02
76156;BME280;64906;51.290;7.348;2023-06-24T06:40:27;99594.88;;;25.60;45.02
76156;BME280;64906;51.290;7.348;2023-06-24T06:42:53;99598.13;;;25.62;44.99
76156;BME280;64906;51.290;7.348;2023-06-24T06:45:19;99599.69;;;25.68;44.90
76156;BME280;64906;51.290;7.348;2023-06-24T06:47:44;99600.78;;;25.67;45.07
76156;BME280;64906;51.290;7.348;2023-06-24T06:50:10;99602.97;;;25.70;44.69
76156;BME280;64906;51.290;7.348;2023-06-24T06:52:36;99607.03;;;25.72;44.73
76156;BME280;64906;51.290;7.348;2023-06-24T06:55:01;99607.88;;;25.73;44.93
76156;BME280;64906;51.290;7.348;2023-06-24T06:57:26;99609.50;;;25.74;44.77
76156;BME280;64906;51.290;7.348;2023-06-24T06:59:52;99611.25;;;25.70;45.01
76156;BME280;64906;51.290;7.348;2023-06-24T07:02:18;99608.78;;;25.68;45.11
76156;BME280;64906;51.290;7.348;2023-06-24T07:04:43;99617.06;;;25.68;45.04
76156;BME280;64906;51.290;7.348;2023-06-24T07:07:09;99615.66;;;25.71;45.14
76156;BME280;64906;51.290;7.348;2023-06-24T07:09:35;99613.19;;;25.69;44.72
76156;BME280;64906;51.290;7.348;2023-06-24T07:12:00;99617.59;;;25.70;44.98
76156;BME280;64906;51.290;7.348;2023-06-24T07:14:26;99611.66;;;25.77;44.86
76156;BME280;64906;51.290;7.348;2023-06-24T07:16:51;99611.03;;;25.80;45.05
76156;BME280;64906;51.290;7.348;2023-06-24T07:19:17;99612.38;;;25.82;44.57
76156;BME280;64906;51.290;7.348;2023-06-24T07:21:42;99605.06;;;25.86;44.57
76156;BME280;64906;51.290;7.348;2023-06-24T07:24:07;99610.94;;;25.85;44.82
76156;BME280;64906;51.290;7.348;2023-06-24T07:26:32;99613.06;;;25.88;44.71
76156;BME280;64906;51.290;7.348;2023-06-24T07:28:58;99603.66;;;25.89;44.49
76156;BME280;64906;51.290;7.348;2023-06-24T07:31:24;99612.59;;;25.86;44.85
76156;BME280;64906;51.290;7.348;2023-06-24T07:33:49;99607.66;;;25.83;44.99
76156;BME280;64906;51.290;7.348;2023-06-24T07:36:15;99617.59;;;25.84;44.73
76156;BME280;64906;51.290;7.348;2023-06-24T07:38:40;99618.13;;;25.86;44.74
76156;BME280;64906;51.290;7.348;2023-06-24T07:41:06;99616.47;;;25.85;44.67
76156;BME280;64906;51.290;7.348;2023-06-24T07:43:31;99625.38;;;25.82;45.01
76156;BME280;64906;51.290;7.348;2023-06-24T07:45:56;99624.34;;;25.91;44.63
76156;BME280;64906;51.290;7.348;2023-06-24T07:48:21;99622.41;;;25.92;44.61
76156;BME280;64906;51.290;7.348;2023-06-24T07:50:47;99624.03;;;25.93;44.73
76156;BME280;64906;51.290;7.348;2023-06-24T07:53:12;99624.53;;;25.95;44.46
76156;BME280;64906;51.290;7.348;2023-06-24T07:55:37;99627.00;;;25.96;44.73
76156;BME280;64906;51.290;7.348;2023-06-24T07:58:03;99617.69;;;25.92;45.01
76156;BME280;64906;51.290;7.348;2023-06-24T08:00:30;99619.13;;;25.90;44.97
76156;BME280;64906;51.290;7.348;2023-06-24T08:02:57;99620.78;;;25.91;44.54
76156;BME280;64906;51.290;7.348;2023-06-24T08:05:22;99615.56;;;25.89;44.69
76156;BME280;64906;51.290;7.348;2023-06-24T08:07:48;99614.72;;;25.89;44.91
76156;BME280;64906;51.290;7.348;2023-06-24T08:10:13;99616.25;;;25.95;44.51
76156;BME280;64906;51.290;7.348;2023-06-24T08:12:38;99618.09;;;25.99;44.66
76156;BME280;64906;51.290;7.348;2023-06-24T08:15:04;99621.41;;;26.01;44.51
76156;BME280;64906;51.290;7.348;2023-06-24T08:17:29;99616.16;;;26.00;44.63
76156;BME280;64906;51.290;7.348;2023-06-24T08:19:55;99620.69;;;25.96;44.82
76156;BME280;64906;51.290;7.348;2023-06-24T08:22:20;99606.22;;;25.99;44.63
76156;BME280;64906;51.290;7.348;2023-06-24T08:24:45;99611.44;;;26.00;44.91
76156;BME280;64906;51.290;7.348;2023-06-24T08:27:11;99609.22;;;26.02;44.70
76156;BME280;64906;51.290;7.348;2023-06-24T08:29:36;99611.97;;;26.02;44.60
76156;BME280;64906;51.290;7.348;2023-06-24T08:32:03;99610.22;;;26.06;44.51
76156;BME280;64906;51.290;7.348;2023-06-24T08:34:29;99607.44;;;26.06;44.69
76156;BME280;64906;51.290;7.348;2023-06-24T08:36:55;99620.34;;;26.11;44.63
76156;BME280;64906;51.290;7.348;2023-06-24T08:39:20;99614.66;;;26.07;44.62
76156;BME280;64906;51.290;7.348;2023-06-24T08:41:45;99612.16;;;26.06;44.38
76156;BME280;64906;51.290;7.348;2023-06-24T08:44:10;99610.75;;;26.08;44.58
76156;BME280;64906;51.290;7.348;2023-06-24T08:46:36;99612.38;;;26.09;44.54
76156;BME280;64906;51.290;7.348;2023-06-24T08:52:00;99610.31;;;26.15;44.45
76156;BME280;64906;51.290;7.348;2023-06-24T08:54:26;99606.09;;;26.17;44.64
76156;BME280;64906;51.290;7.348;2023-06-24T08:56:52;99608.38;;;26.15;44.62
76156;BME280;64906;51.290;7.348;2023-06-24T08:59:18;99608.88;;;26.17;44.16
76156;BME280;64906;51.290;7.348;2023-06-24T09:01:46;99604.97;;;26.18;44.48
76156;BME280;64906;51.290;7.348;2023-06-24T09:04:12;99612.47;;;26.18;44.50
76156;BME280;64906;51.290;7.348;2023-06-24T09:06:37;99604.88;;;26.23;44.23
76156;BME280;64906;51.290;7.348;2023-06-24T09:09:02;99602.41;;;26.22;44.60
76156;BME280;64906;51.290;7.348;2023-06-24T09:11:28;99604.34;;;26.21;44.56
76156;BME280;64906;51.290;7.348;2023-06-24T09:13:55;99609.28;;;26.24;44.31
76156;BME280;64906;51.290;7.348;2023-06-24T09:16:21;99607.13;;;26.21;44.42
76156;BME280;64906;51.290;7.348;2023-06-24T09:18:50;99604.34;;;26.21;44.45
76156;BME280;64906;51.290;7.348;2023-06-24T09:21:22;99603.72;;;26.24;44.29
76156;BME280;64906;51.290;7.348;2023-06-24T09:23:52;99594.81;;;26.27;44.22
76156;BME280;64906;51.290;7.348;2023-06-24T09:26:17;99596.13;;;26.30;44.46
76156;BME280;64906;51.290;7.348;2023-06-24T09:28:47;99599.38;;;26.32;44.42
76156;BME280;64906;51.290;7.348;2023-06-24T09:31:13;99593.69;;;26.28;44.20
76156;BME280;64906;51.290;7.348;2023-06-24T09:33:39;99607.22;;;26.30;44.33
76156;BME280;64906;51.290;7.348;2023-06-24T09:36:05;99598.91;;;26.30;44.09
76156;BME280;64906;51.290;7.348;2023-06-24T09:38:37;99598.50;;;26.23;44.98
76156;BME280;64906;51.290;7.348;2023-06-24T09:41:05;99585.41;;;26.15;45.99
76156;BME280;64906;51.290;7.348;2023-06-24T09:43:36;99591.56;;;26.12;46.47
76156;BME280;64906;51.290;7.348;2023-06-24T09:46:05;99586.56;;;26.14;46.51
76156;BME280;64906;51.290;7.348;2023-06-24T09:48:31;99581.28;;;26.12;46.55
76156;BME280;64906;51.290;7.348;2023-06-24T09:50:59;99576.06;;;26.11;46.83
76156;BME280;64906;51.290;7.348;2023-06-24T09:53:33;99568.69;;;26.20;46.74
76156;BME280;64906;51.290;7.348;2023-06-24T09:56:07;99569.00;;;26.18;48.16
76156;BME280;64906;51.290;7.348;2023-06-24T09:58:36;99574.03;;;26.03;48.38
76156;BME280;64906;51.290;7.348;2023-06-24T10:01:04;99570.53;;;26.11;47.64
76156;BME280;64906;51.290;7.348;2023-06-24T10:03:39;99570.41;;;26.29;47.05
76156;BME280;64906;51.290;7.348;2023-06-24T10:06:05;99570.72;;;26.28;47.10
76156;BME280;64906;51.290;7.348;2023-06-24T10:08:31;99559.00;;;26.31;46.80
76156;BME280;64906;51.290;7.348;2023-06-24T10:10:58;99573.88;;;26.35;46.71
76156;BME280;64906;51.290;7.348;2023-06-24T10:13:24;99563.47;;;26.40;46.66
76156;BME280;64906;51.290;7.348;2023-06-24T10:15:51;99565.13;;;26.41;46.03
76156;BME280;64906;51.290;7.348;2023-06-24T10:21:01;99556.53;;;26.43;45.95
76156;BME280;64906;51.290;7.348;2023-06-24T10:23:31;99553.13;;;26.46;46.16
76156;BME280;64906;51.290;7.348;2023-06-24T10:25:57;99556.09;;;26.50;45.96
76156;BME280;64906;51.290;7.348;2023-06-24T10:28:23;99547.84;;;26.58;45.86
76156;BME280;64906;51.290;7.348;2023-06-24T10:30:55;99548.31;;;26.60;45.67
76156;BME280;64906;51.290;7.348;2023-06-24T10:33:21;99542.16;;;26.41;45.84
76156;BME280;64906;51.290;7.348;2023-06-24T10:35:48;99536.69;;;26.50;45.60
76156;BME280;64906;51.290;7.348;2023-06-24T10:38:13;99532.78;;;26.51;45.62
76156;BME280;64906;51.290;7.348;2023-06-24T10:40:41;99535.63;;;26.59;45.35
76156;BME280;64906;51.290;7.348;2023-06-24T10:43:27;99532.47;;;26.52;45.52
76156;BME280;64906;51.290;7.348;2023-06-24T10:45:55;99531.06;;;26.63;45.40
76156;BME280;64906;51.290;7.348;2023-06-24T10:48:21;99516.44;;;26.63;45.45
76156;BME280;64906;51.290;7.348;2023-06-24T10:50:50;99523.22;;;26.57;45.51
76156;BME280;64906;51.290;7.348;2023-06-24T10:53:16;99521.56;;;26.69;45.21
76156;BME280;64906;51.290;7.348;2023-06-24T10:55:44;99519.56;;;26.70;45.19
76156;BME280;64906;51.290;7.348;2023-06-24T10:58:13;99512.75;;;26.67;45.15
76156;BME280;64906;51.290;7.348;2023-06-24T11:00:40;99517.06;;;26.60;45.19
76156;BME280;64906;51.290;7.348;2023-06-24T11:03:13;99520.09;;;26.50;45.69
76156;BME280;64906;51.290;7.348;2023-06-24T11:05:42;99501.88;;;26.57;45.32
76156;BME280;64906;51.290;7.348;2023-06-24T11:08:08;99508.81;;;26.68;44.95
76156;BME280;64906;51.290;7.348;2023-06-24T11:10:45;99501.84;;;26.71;44.96
76156;BME280;64906;51.290;7.348;2023-06-24T11:13:11;99501.38;;;26.55;44.93
76156;BME280;64906;51.290;7.348;2023-06-24T11:15:38;99506.59;;;26.57;45.06
76156;BME280;64906;51.290;7.348;2023-06-24T11:18:04;99506.78;;;26.60;44.68
76156;BME280;64906;51.290;7.348;2023-06-24T11:20:30;99504.44;;;26.45;45.06
76156;BME280;64906;51.290;7.348;2023-06-24T11:22:55;99507.59;;;26.38;45.43
76156;BME280;64906;51.290;7.348;2023-06-24T11:25:28;99500.75;;;26.36;45.39
76156;BME280;64906;51.290;7.348;2023-06-24T11:28:19;99499.72;;;26.32;45.74
76156;BME280;64906;51.290;7.348;2023-06-24T11:30:45;99499.81;;;26.18;45.36
76156;BME280;64906;51.290;7.348;2023-06-24T11:33:10;99497.78;;;26.10;45.78
76156;BME280;64906;51.290;7.348;2023-06-24T11:35:36;99495.41;;;26.39;45.00
76156;BME280;64906;51.290;7.348;2023-06-24T11:38:02;99505.59;;;26.53;44.63
76156;BME280;64906;51.290;7.348;2023-06-24T11:40:30;99500.94;;;26.62;44.72
76156;BME280;64906;51.290;7.348;2023-06-24T11:42:56;99501.00;;;26.70;44.38
76156;BME280;64906;51.290;7.348;2023-06-24T11:45:21;99501.72;;;26.76;43.84
76156;BME280;64906;51.290;7.348;2023-06-24T11:47:47;99502.03;;;26.74;44.01
76156;BME280;64906;51.290;7.348;2023-06-24T11:50:13;99501.41;;;26.77;44.01
76156;BME280;64906;51.290;7.348;2023-06-24T11:52:47;99500.44;;;26.60;43.81
76156;BME280;64906;51.290;7.348;2023-06-24T11:55:19;99496.63;;;26.69;43.99
76156;BME280;64906;51.290;7.348;2023-06-24T11:58:02;99496.91;;;26.45;43.80
76156;BME280;64906;51.290;7.348;2023-06-24T12:00:39;99486.41;;;26.56;43.90
76156;BME280;64906;51.290;7.348;2023-06-24T12:03:11;99482.66;;;26.74;43.73
76156;BME280;64906;51.290;7.348;2023-06-24T12:05:39;99486.66;;;26.68;43.64
76156;BME280;64906;51.290;7.348;2023-06-24T12:08:11;99486.06;;;26.71;43.47
76156;BME280;64906;51.290;7.348;2023-06-24T12:10:37;99485.75;;;26.81;43.59
76156;BME280;64906;51.290;7.348;2023-06-24T12:13:03;99486.91;;;26.58;43.01
76156;BME280;64906;51.290;7.348;2023-06-24T12:15:34;99478.09;;;26.34;43.55
76156;BME280;64906;51.290;7.348;2023-06-24T12:18:00;99476.72;;;26.45;43.74
76156;BME280;64906;51.290;7.348;2023-06-24T12:20:28;99472.19;;;26.71;43.35
76156;BME280;64906;51.290;7.348;2023-06-24T12:22:53;99472.88;;;26.77;43.02
76156;BME280;64906;51.290;7.348;2023-06-24T12:25:18;99468.53;;;26.62;43.01
76156;BME280;64906;51.290;7.348;2023-06-24T12:27:44;99472.34;;;26.75;42.95
76156;BME280;64906;51.290;7.348;2023-06-24T12:30:10;99464.59;;;26.85;42.93
76156;BME280;64906;51.290;7.348;2023-06-24T12:32:36;99458.88;;;26.82;42.65
76156;BME280;64906;51.290;7.348;2023-06-24T12:35:02;99464.22;;;26.78;42.72
76156;BME280;64906;51.290;7.348;2023-06-24T12:37:32;99456.63;;;26.84;42.37
76156;BME280;64906;51.290;7.348;2023-06-24T12:39:59;99452.22;;;26.83;42.42
76156;BME280;64906;51.290;7.348;2023-06-24T12:42:25;99453.34;;;26.82;42.71
76156;BME280;64906;51.290;7.348;2023-06-24T12:44:50;99454.16;;;26.82;42.38
76156;BME280;64906;51.290;7.348;2023-06-24T12:47:16;99454.22;;;26.91;42.11
76156;BME280;64906;51.290;7.348;2023-06-24T12:49:41;99447.28;;;26.80;42.30
76156;BME280;64906;51.290;7.348;2023-06-24T12:52:06;99460.63;;;26.69;42.39
76156;BME280;64906;51.290;7.348;2023-06-24T12:54:32;99450.34;;;26.70;42.54
76156;BME280;64906;51.290;7.348;2023-06-24T12:56:57;99448.28;;;26.53;42.74
76156;BME280;64906;51.290;7.348;2023-06-24T12:59:22;99446.63;;;26.52;41.98
76156;BME280;64906;51.290;7.348;2023-06-24T13:01:48;99446.34;;;26.62;42.37
76156;BME280;64906;51.290;7.348;2023-06-24T13:04:13;99445.19;;;26.55;42.26
76156;BME280;64906;51.290;7.348;2023-06-24T13:06:38;99441.34;;;26.42;42.64
76156;BME280;64906;51.290;7.348;2023-06-24T13:09:04;99441.91;;;26.53;42.39
76156;BME280;64906;51.290;7.348;2023-06-24T13:11:30;99455.56;;;26.49;41.95
76156;BME280;64906;51.290;7.348;2023-06-24T13:13:55;99446.78;;;26.69;42.20
76156;BME280;64906;51.290;7.348;2023-06-24T13:16:20;99453.16;;;26.78;42.40